sensor_id;sensor_type;location;lat;lon;timestamp;P1;durP1;ratioP1;P2;durP2;ratioP2
21731;SDS011;11028;51.156;17.130;2022-12-15T00:07:05;92.75;;;38.22;;
21731;SDS011;11028;51.156;17.130;2022-12-15T00:14:43;133.68;;;54.88;;
21731;SDS011;11028;51.156;17.130;2022-12-15T00:22:18;139.55;;;56.63;;
21731;SDS011;11028;51.156;17.130;2022-12-15T00:29:55;124.88;;;51.53;;
21731;SDS011;11028;51.156;17.130;2022-12-15T00:37:31;111.45;;;48.53;;
21731;SDS011;11028;51.156;17.130;2022-12-15T00:45:08;114.35;;;47.38;;
21731;SDS011;11028;51.156;17.130;2022-12-15T00:52:27;109.45;;;47.20;;
21731;SDS011;11028;51.156;17.130;2022-12-15T01:00:03;123.72;;;49.38;;
21731;SDS011;11028;51.156;17.130;2022-12-15T01:07:40;123.25;;;50.85;;
21731;SDS011;11028;51.156;17.130;2022-12-15T01:15:15;109.53;;;45.05;;
21731;SDS011;11028;51.156;17.130;2022-12-15T01:22:53;123.75;;;49.10;;
21731;SDS011;11028;51.156;17.130;2022-12-15T01:30:12;125.80;;;51.85;;
21731;SDS011;11028;51.156;17.130;2022-12-15T01:37:32;131.48;;;50.08;;
21731;SDS011;11028;51.156;17.130;2022-12-15T01:52:45;141.57;;;53.47;;
21731;SDS011;11028;51.156;17.130;2022-12-15T02:00:05;130.68;;;48.65;;
21731;SDS011;11028;51.156;17.130;2022-12-15T02:07:25;124.00;;;52.72;;
21731;SDS011;11028;51.156;17.130;2022-12-15T02:14:46;151.65;;;58.13;;
21731;SDS011;11028;51.156;17.130;2022-12-15T02:22:16;144.23;;;54.38;;
21731;SDS011;11028;51.156;17.130;2022-12-15T02:37:40;147.98;;;57.13;;
21731;SDS011;11028;51.156;17.130;2022-12-15T02:44:58;131.13;;;52.85;;
21731;SDS011;11028;51.156;17.130;2022-12-15T02:52:28;126.13;;;50.15;;
21731;SDS011;11028;51.156;17.130;2022-12-15T02:59:54;128.65;;;50.97;;
21731;SDS011;11028;51.156;17.130;2022-12-15T03:07:14;135.63;;;51.08;;
21731;SDS011;11028;51.156;17.130;2022-12-15T03:14:35;120.72;;;48.00;;
21731;SDS011;11028;51.156;17.130;2022-12-15T03:21:54;108.32;;;45.55;;
21731;SDS011;11028;51.156;17.130;2022-12-15T03:29:12;117.55;;;45.08;;
21731;SDS011;11028;51.156;17.130;2022-12-15T03:36:31;108.40;;;44.22;;
21731;SDS011;11028;51.156;17.130;2022-12-15T03:43:50;112.57;;;45.47;;
21731;SDS011;11028;51.156;17.130;2022-12-15T03:51:09;111.45;;;46.13;;
21731;SDS011;11028;51.156;17.130;2022-12-15T03:58:27;100.60;;;41.75;;
21731;SDS011;11028;51.156;17.130;2022-12-15T04:05:51;93.00;;;40.13;;
21731;SDS011;11028;51.156;17.130;2022-12-15T04:13:10;99.88;;;41.45;;
21731;SDS011;11028;51.156;17.130;2022-12-15T04:20:29;102.45;;;40.53;;
21731;SDS011;11028;51.156;17.130;2022-12-15T04:27:50;99.28;;;40.42;;
21731;SDS011;11028;51.156;17.130;2022-12-15T04:35:25;95.40;;;41.20;;
21731;SDS011;11028;51.156;17.130;2022-12-15T04:43:06;99.45;;;39.53;;
21731;SDS011;11028;51.156;17.130;2022-12-15T04:50:42;106.00;;;40.67;;
21731;SDS011;11028;51.156;17.130;2022-12-15T04:58:19;86.90;;;37.00;;
21731;SDS011;11028;51.156;17.130;2022-12-15T05:05:56;93.45;;;40.58;;
21731;SDS011;11028;51.156;17.130;2022-12-15T05:13:32;85.60;;;36.78;;
21731;SDS011;11028;51.156;17.130;2022-12-15T05:21:09;84.38;;;37.47;;
21731;SDS011;11028;51.156;17.130;2022-12-15T05:28:46;85.75;;;36.85;;
21731;SDS011;11028;51.156;17.130;2022-12-15T05:36:21;87.35;;;36.65;;
21731;SDS011;11028;51.156;17.130;2022-12-15T05:43:40;89.57;;;40.17;;
21731;SDS011;11028;51.156;17.130;2022-12-15T05:51:02;82.82;;;36.50;;
21731;SDS011;11028;51.156;17.130;2022-12-15T05:58:21;91.18;;;40.00;;
21731;SDS011;11028;51.156;17.130;2022-12-15T06:05:39;90.25;;;37.88;;
21731;SDS011;11028;51.156;17.130;2022-12-15T06:13:00;84.43;;;37.90;;
21731;SDS011;11028;51.156;17.130;2022-12-15T06:20:20;78.38;;;33.10;;
21731;SDS011;11028;51.156;17.130;2022-12-15T06:27:39;76.40;;;33.40;;
21731;SDS011;11028;51.156;17.130;2022-12-15T06:34:59;78.13;;;35.38;;
21731;SDS011;11028;51.156;17.130;2022-12-15T06:42:17;84.32;;;37.00;;
21731;SDS011;11028;51.156;17.130;2022-12-15T06:49:36;80.72;;;33.45;;
21731;SDS011;11028;51.156;17.130;2022-12-15T06:56:55;80.50;;;34.88;;
21731;SDS011;11028;51.156;17.130;2022-12-15T07:04:13;71.18;;;32.42;;
21731;SDS011;11028;51.156;17.130;2022-12-15T07:11:32;79.50;;;30.65;;
21731;SDS011;11028;51.156;17.130;2022-12-15T07:18:52;72.70;;;33.80;;
21731;SDS011;11028;51.156;17.130;2022-12-15T07:26:10;70.32;;;30.27;;
21731;SDS011;11028;51.156;17.130;2022-12-15T07:33:28;75.90;;;30.77;;
21731;SDS011;11028;51.156;17.130;2022-12-15T07:40:48;68.32;;;30.67;;
21731;SDS011;11028;51.156;17.130;2022-12-15T07:48:07;72.65;;;30.88;;
21731;SDS011;11028;51.156;17.130;2022-12-15T07:55:25;80.35;;;30.45;;
21731;SDS011;11028;51.156;17.130;2022-12-15T08:03:05;65.97;;;28.95;;
21731;SDS011;11028;51.156;17.130;2022-12-15T08:10:23;44.85;;;20.08;;
21731;SDS011;11028;51.156;17.130;2022-12-15T08:17:42;38.53;;;16.95;;
21731;SDS011;11028;51.156;17.130;2022-12-15T08:25:02;44.78;;;18.73;;
21731;SDS011;11028;51.156;17.130;2022-12-15T08:32:21;52.75;;;22.42;;
21731;SDS011;11028;51.156;17.130;2022-12-15T08:39:40;41.53;;;18.35;;
21731;SDS011;11028;51.156;17.130;2022-12-15T08:47:00;40.75;;;17.30;;
21731;SDS011;11028;51.156;17.130;2022-12-15T08:54:18;38.50;;;18.13;;
21731;SDS011;11028;51.156;17.130;2022-12-15T09:01:37;44.83;;;19.58;;
21731;SDS011;11028;51.156;17.130;2022-12-15T09:08:58;37.80;;;17.98;;
21731;SDS011;11028;51.156;17.130;2022-12-15T09:16:19;46.67;;;19.50;;
21731;SDS011;11028;51.156;17.130;2022-12-15T09:23:38;37.95;;;18.13;;
21731;SDS011;11028;51.156;17.130;2022-12-15T09:31:02;49.08;;;23.10;;
21731;SDS011;11028;51.156;17.130;2022-12-15T09:38:21;40.22;;;17.15;;
21731;SDS011;11028;51.156;17.130;2022-12-15T09:45:40;33.63;;;15.55;;
21731;SDS011;11028;51.156;17.130;2022-12-15T09:53:01;33.42;;;15.45;;
21731;SDS011;11028;51.156;17.130;2022-12-15T10:00:41;34.50;;;15.55;;
21731;SDS011;11028;51.156;17.130;2022-12-15T10:15:46;38.65;;;18.25;;
21731;SDS011;11028;51.156;17.130;2022-12-15T10:23:09;36.83;;;21.33;;
21731;SDS011;11028;51.156;17.130;2022-12-15T10:30:32;29.70;;;14.98;;
21731;SDS011;11028;51.156;17.130;2022-12-15T10:37:51;37.05;;;15.85;;
21731;SDS011;11028;51.156;17.130;2022-12-15T10:45:10;27.92;;;14.20;;
21731;SDS011;11028;51.156;17.130;2022-12-15T10:52:47;36.55;;;17.30;;
21731;SDS011;11028;51.156;17.130;2022-12-15T11:00:23;37.88;;;15.20;;
21731;SDS011;11028;51.156;17.130;2022-12-15T11:07:45;34.25;;;16.48;;
21731;SDS011;11028;51.156;17.130;2022-12-15T11:15:35;34.33;;;16.35;;
21731;SDS011;11028;51.156;17.130;2022-12-15T11:22:52;36.05;;;16.67;;
21731;SDS011;11028;51.156;17.130;2022-12-15T11:30:19;30.27;;;15.88;;
21731;SDS011;11028;51.156;17.130;2022-12-15T11:37:39;36.20;;;16.67;;
21731;SDS011;11028;51.156;17.130;2022-12-15T11:45:00;30.13;;;15.15;;
21731;SDS011;11028;51.156;17.130;2022-12-15T11:52:27;30.83;;;14.70;;
21731;SDS011;11028;51.156;17.130;2022-12-15T12:00:01;31.45;;;16.27;;
21731;SDS011;11028;51.156;17.130;2022-12-15T12:07:30;28.75;;;15.00;;
21731;SDS011;11028;51.156;17.130;2022-12-15T12:15:01;32.47;;;15.43;;
21731;SDS011;11028;51.156;17.130;2022-12-15T12:22:34;35.80;;;16.40;;
21731;SDS011;11028;51.156;17.130;2022-12-15T12:29:56;32.15;;;15.63;;
21731;SDS011;11028;51.156;17.130;2022-12-15T12:37:19;33.65;;;15.73;;
21731;SDS011;11028;51.156;17.130;2022-12-15T12:44:40;23.80;;;11.97;;
21731;SDS011;11028;51.156;17.130;2022-12-15T12:51:59;26.55;;;13.85;;
21731;SDS011;11028;51.156;17.130;2022-12-15T12:59:33;27.17;;;14.75;;
21731;SDS011;11028;51.156;17.130;2022-12-15T13:14:43;46.90;;;21.55;;
21731;SDS011;11028;51.156;17.130;2022-12-15T13:22:21;31.67;;;15.15;;
21731;SDS011;11028;51.156;17.130;2022-12-15T13:29:53;30.63;;;13.88;;
21731;SDS011;11028;51.156;17.130;2022-12-15T13:53:06;30.42;;;13.65;;
21731;SDS011;11028;51.156;17.130;2022-12-15T14:00:48;33.88;;;13.38;;
21731;SDS011;11028;51.156;17.130;2022-12-15T14:08:09;32.50;;;15.43;;
21731;SDS011;11028;51.156;17.130;2022-12-15T14:15:29;39.65;;;16.45;;
21731;SDS011;11028;51.156;17.130;2022-12-15T14:22:50;31.23;;;16.02;;
21731;SDS011;11028;51.156;17.130;2022-12-15T14:30:14;39.85;;;17.13;;
21731;SDS011;11028;51.156;17.130;2022-12-15T14:37:38;39.17;;;17.75;;
21731;SDS011;11028;51.156;17.130;2022-12-15T14:44:57;39.35;;;18.35;;
21731;SDS011;11028;51.156;17.130;2022-12-15T14:52:21;49.88;;;21.13;;
21731;SDS011;11028;51.156;17.130;2022-12-15T14:59:43;54.45;;;23.05;;
21731;SDS011;11028;51.156;17.130;2022-12-15T15:07:06;51.28;;;22.73;;
21731;SDS011;11028;51.156;17.130;2022-12-15T15:14:36;56.60;;;23.05;;
21731;SDS011;11028;51.156;17.130;2022-12-15T15:21:57;57.80;;;24.10;;
21731;SDS011;11028;51.156;17.130;2022-12-15T15:29:35;54.30;;;24.17;;
21731;SDS011;11028;51.156;17.130;2022-12-15T15:36:56;60.15;;;26.00;;
21731;SDS011;11028;51.156;17.130;2022-12-15T15:44:14;53.80;;;23.65;;
21731;SDS011;11028;51.156;17.130;2022-12-15T15:51:35;55.63;;;22.38;;
21731;SDS011;11028;51.156;17.130;2022-12-15T15:58:53;52.20;;;22.50;;
21731;SDS011;11028;51.156;17.130;2022-12-15T16:06:14;58.45;;;24.27;;
21731;SDS011;11028;51.156;17.130;2022-12-15T16:13:35;56.97;;;22.92;;
21731;SDS011;11028;51.156;17.130;2022-12-15T16:20:53;61.80;;;23.60;;
21731;SDS011;11028;51.156;17.130;2022-12-15T16:28:12;58.35;;;27.25;;
21731;SDS011;11028;51.156;17.130;2022-12-15T16:35:32;66.03;;;27.48;;
21731;SDS011;11028;51.156;17.130;2022-12-15T16:42:51;91.18;;;34.30;;
21731;SDS011;11028;51.156;17.130;2022-12-15T16:50:12;80.78;;;33.78;;
21731;SDS011;11028;51.156;17.130;2022-12-15T16:57:33;101.45;;;37.45;;
21731;SDS011;11028;51.156;17.130;2022-12-15T17:04:52;111.38;;;45.55;;
21731;SDS011;11028;51.156;17.130;2022-12-15T17:12:11;98.00;;;40.20;;
21731;SDS011;11028;51.156;17.130;2022-12-15T17:19:31;107.82;;;39.42;;
21731;SDS011;11028;51.156;17.130;2022-12-15T17:26:49;93.43;;;37.03;;
21731;SDS011;11028;51.156;17.130;2022-12-15T17:34:13;94.47;;;37.55;;
21731;SDS011;11028;51.156;17.130;2022-12-15T17:41:41;94.23;;;38.07;;
21731;SDS011;11028;51.156;17.130;2022-12-15T17:49:16;89.10;;;36.05;;
21731;SDS011;11028;51.156;17.130;2022-12-15T17:56:34;94.47;;;37.53;;
21731;SDS011;11028;51.156;17.130;2022-12-15T18:03:54;106.03;;;43.80;;
21731;SDS011;11028;51.156;17.130;2022-12-15T18:11:13;127.32;;;50.60;;
21731;SDS011;11028;51.156;17.130;2022-12-15T18:18:32;119.63;;;45.63;;
21731;SDS011;11028;51.156;17.130;2022-12-15T18:25:52;123.97;;;49.95;;
21731;SDS011;11028;51.156;17.130;2022-12-15T18:33:15;108.00;;;47.30;;
21731;SDS011;11028;51.156;17.130;2022-12-15T18:40:33;141.55;;;52.22;;
21731;SDS011;11028;51.156;17.130;2022-12-15T18:47:53;153.48;;;60.35;;
21731;SDS011;11028;51.156;17.130;2022-12-15T18:55:13;166.73;;;62.22;;
21731;SDS011;11028;51.156;17.130;2022-12-15T19:02:34;128.80;;;48.08;;
21731;SDS011;11028;51.156;17.130;2022-12-15T19:09:53;144.50;;;57.95;;
21731;SDS011;11028;51.156;17.130;2022-12-15T19:17:13;148.85;;;57.50;;
21731;SDS011;11028;51.156;17.130;2022-12-15T19:24:49;147.63;;;56.13;;
21731;SDS011;11028;51.156;17.130;2022-12-15T19:32:15;135.27;;;53.95;;
21731;SDS011;11028;51.156;17.130;2022-12-15T19:39:33;124.10;;;51.80;;
21731;SDS011;11028;51.156;17.130;2022-12-15T19:46:53;150.40;;;56.08;;
21731;SDS011;11028;51.156;17.130;2022-12-15T19:54:14;140.55;;;59.83;;
21731;SDS011;11028;51.156;17.130;2022-12-15T20:01:33;162.20;;;62.67;;
21731;SDS011;11028;51.156;17.130;2022-12-15T20:08:53;162.38;;;64.25;;
21731;SDS011;11028;51.156;17.130;2022-12-15T20:16:14;141.00;;;55.40;;
21731;SDS011;11028;51.156;17.130;2022-12-15T20:23:34;147.73;;;54.77;;
21731;SDS011;11028;51.156;17.130;2022-12-15T20:30:53;155.95;;;57.38;;
21731;SDS011;11028;51.156;17.130;2022-12-15T20:38:16;148.13;;;55.25;;
21731;SDS011;11028;51.156;17.130;2022-12-15T20:45:37;148.85;;;51.88;;
21731;SDS011;11028;51.156;17.130;2022-12-15T20:52:56;153.15;;;54.75;;
21731;SDS011;11028;51.156;17.130;2022-12-15T21:00:16;148.38;;;52.35;;
21731;SDS011;11028;51.156;17.130;2022-12-15T21:07:35;138.25;;;52.38;;
21731;SDS011;11028;51.156;17.130;2022-12-15T21:14:53;132.32;;;51.25;;
21731;SDS011;11028;51.156;17.130;2022-12-15T21:22:14;178.68;;;68.43;;
21731;SDS011;11028;51.156;17.130;2022-12-15T21:29:36;136.65;;;53.08;;
21731;SDS011;11028;51.156;17.130;2022-12-15T21:36:55;149.65;;;56.72;;
21731;SDS011;11028;51.156;17.130;2022-12-15T21:44:15;173.18;;;61.53;;
21731;SDS011;11028;51.156;17.130;2022-12-15T21:51:36;164.57;;;57.33;;
21731;SDS011;11028;51.156;17.130;2022-12-15T21:58:56;162.52;;;62.28;;
21731;SDS011;11028;51.156;17.130;2022-12-15T22:06:17;179.10;;;64.10;;
21731;SDS011;11028;51.156;17.130;2022-12-15T22:13:36;166.13;;;60.35;;
21731;SDS011;11028;51.156;17.130;2022-12-15T22:20:55;158.13;;;59.53;;
21731;SDS011;11028;51.156;17.130;2022-12-15T22:28:17;147.95;;;57.85;;
21731;SDS011;11028;51.156;17.130;2022-12-15T22:35:37;147.15;;;55.50;;
21731;SDS011;11028;51.156;17.130;2022-12-15T22:42:56;137.38;;;51.95;;
21731;SDS011;11028;51.156;17.130;2022-12-15T22:50:17;131.32;;;51.22;;
21731;SDS011;11028;51.156;17.130;2022-12-15T22:57:37;137.45;;;49.40;;
21731;SDS011;11028;51.156;17.130;2022-12-15T23:04:55;132.85;;;51.70;;
21731;SDS011;11028;51.156;17.130;2022-12-15T23:12:15;134.93;;;50.10;;
21731;SDS011;11028;51.156;17.130;2022-12-15T23:19:33;129.55;;;45.42;;
21731;SDS011;11028;51.156;17.130;2022-12-15T23:26:54;144.95;;;54.33;;
21731;SDS011;11028;51.156;17.130;2022-12-15T23:34:13;150.35;;;55.15;;
21731;SDS011;11028;51.156;17.130;2022-12-15T23:41:31;151.60;;;54.97;;
21731;SDS011;11028;51.156;17.130;2022-12-15T23:48:50;144.85;;;55.22;;
21731;SDS011;11028;51.156;17.130;2022-12-15T23:56:10;143.60;;;54.42;;
